sensor_id;sensor_type;location;lat;lon;timestamp;temperature;humidity
67249;SHT31;63247;54.300;18.592;2023-04-01T00:01:04;4.53;99.99
67249;SHT31;63247;54.300;18.592;2023-04-01T00:03:30;4.51;99.99
67249;SHT31;63247;54.300;18.592;2023-04-01T00:05:57;4.44;99.99
67249;SHT31;63247;54.300;18.592;2023-04-01T00:08:23;4.37;99.99
67249;SHT31;63247;54.300;18.592;2023-04-01T00:10:49;4.35;99.99
67249;SHT31;63247;54.300;18.592;2023-04-01T00:13:15;4.37;99.99
67249;SHT31;63247;54.300;18.592;2023-04-01T00:15:40;4.30;99.99
67249;SHT31;63247;54.300;18.592;2023-04-01T00:18:06;4.24;99.99
67249;SHT31;63247;54.300;18.592;2023-04-01T00:20:32;4.20;99.99
67249;SHT31;63247;54.300;18.592;2023-04-01T00:22:57;4.14;99.99
67249;SHT31;63247;54.300;18.592;2023-04-01T00:25:23;4.14;99.99
67249;SHT31;63247;54.300;18.592;2023-04-01T00:27:49;4.04;99.99
67249;SHT31;63247;54.300;18.592;2023-04-01T00:30:15;4.07;99.99
67249;SHT31;63247;54.300;18.592;2023-04-01T00:32:41;4.04;99.99
67249;SHT31;63247;54.300;18.592;2023-04-01T00:35:07;4.04;99.99
67249;SHT31;63247;54.300;18.592;2023-04-01T00:37:35;4.00;99.99
67249;SHT31;63247;54.300;18.592;2023-04-01T00:40:03;3.95;99.99
67249;SHT31;63247;54.300;18.592;2023-04-01T00:42:29;3.97;99.99
67249;SHT31;63247;54.300;18.592;2023-04-01T00:44:55;3.93;99.99
67249;SHT31;63247;54.300;18.592;2023-04-01T00:47:21;3.91;99.99
67249;SHT31;63247;54.300;18.592;2023-04-01T00:49:50;3.90;99.99
67249;SHT31;63247;54.300;18.592;2023-04-01T00:52:19;3.86;99.99
67249;SHT31;63247;54.300;18.592;2023-04-01T00:54:50;3.86;99.99
67249;SHT31;63247;54.300;18.592;2023-04-01T00:57:35;3.86;99.99
67249;SHT31;63247;54.300;18.592;2023-04-01T01:00:05;3.87;99.99
67249;SHT31;63247;54.300;18.592;2023-04-01T01:02:32;3.84;99.99
67249;SHT31;63247;54.300;18.592;2023-04-01T01:04:58;3.87;99.99
67249;SHT31;63247;54.300;18.592;2023-04-01T01:07:29;3.87;99.99
67249;SHT31;63247;54.300;18.592;2023-04-01T01:15:53;3.87;99.99
67249;SHT31;63247;54.300;18.592;2023-04-01T01:18:43;3.79;99.99
67249;SHT31;63247;54.300;18.592;2023-04-01T01:27:01;3.93;99.99
67249;SHT31;63247;54.300;18.592;2023-04-01T01:37:45;4.08;99.99
67249;SHT31;63247;54.300;18.592;2023-04-01T01:40:12;4.02;99.99
67249;SHT31;63247;54.300;18.592;2023-04-01T01:42:42;3.94;99.99
67249;SHT31;63247;54.300;18.592;2023-04-01T01:45:09;3.95;99.99
67249;SHT31;63247;54.300;18.592;2023-04-01T01:47:37;4.01;99.99
67249;SHT31;63247;54.300;18.592;2023-04-01T01:50:03;3.94;99.99
67249;SHT31;63247;54.300;18.592;2023-04-01T01:52:30;4.10;99.99
67249;SHT31;63247;54.300;18.592;2023-04-01T01:54:57;4.10;99.99
67249;SHT31;63247;54.300;18.592;2023-04-01T01:57:26;4.05;99.99
67249;SHT31;63247;54.300;18.592;2023-04-01T01:59:55;4.07;99.99
67249;SHT31;63247;54.300;18.592;2023-04-01T02:02:22;4.02;99.99
67249;SHT31;63247;54.300;18.592;2023-04-01T02:04:49;4.05;99.99
67249;SHT31;63247;54.300;18.592;2023-04-01T02:07:22;4.07;99.99
67249;SHT31;63247;54.300;18.592;2023-04-01T02:09:49;4.10;99.99
67249;SHT31;63247;54.300;18.592;2023-04-01T02:12:16;3.98;99.99
67249;SHT31;63247;54.300;18.592;2023-04-01T02:15:08;3.95;99.99
67249;SHT31;63247;54.300;18.592;2023-04-01T02:17:38;3.95;99.99
67249;SHT31;63247;54.300;18.592;2023-04-01T02:20:09;4.00;99.99
67249;SHT31;63247;54.300;18.592;2023-04-01T02:22:42;4.02;99.99
67249;SHT31;63247;54.300;18.592;2023-04-01T02:25:12;3.98;99.99
67249;SHT31;63247;54.300;18.592;2023-04-01T02:27:39;4.00;99.99
67249;SHT31;63247;54.300;18.592;2023-04-01T02:30:05;4.00;99.99
67249;SHT31;63247;54.300;18.592;2023-04-01T02:32:33;3.90;99.99
67249;SHT31;63247;54.300;18.592;2023-04-01T02:34:59;3.89;99.99
67249;SHT31;63247;54.300;18.592;2023-04-01T02:37:28;3.79;99.99
67249;SHT31;63247;54.300;18.592;2023-04-01T02:39:53;3.80;99.99
67249;SHT31;63247;54.300;18.592;2023-04-01T02:42:19;3.80;99.99
67249;SHT31;63247;54.300;18.592;2023-04-01T02:44:44;3.84;99.99
67249;SHT31;63247;54.300;18.592;2023-04-01T02:47:10;3.86;99.99
67249;SHT31;63247;54.300;18.592;2023-04-01T02:49:35;3.94;99.99
67249;SHT31;63247;54.300;18.592;2023-04-01T02:52:01;3.80;99.99
67249;SHT31;63247;54.300;18.592;2023-04-01T02:54:26;3.87;99.99
67249;SHT31;63247;54.300;18.592;2023-04-01T02:56:51;3.98;99.99
67249;SHT31;63247;54.300;18.592;2023-04-01T02:59:17;3.94;99.99
67249;SHT31;63247;54.300;18.592;2023-04-01T03:01:42;3.95;99.99
67249;SHT31;63247;54.300;18.592;2023-04-01T03:04:08;3.87;99.99
67249;SHT31;63247;54.300;18.592;2023-04-01T03:06:33;3.93;99.99
67249;SHT31;63247;54.300;18.592;2023-04-01T03:08:59;3.94;99.99
67249;SHT31;63247;54.300;18.592;2023-04-01T03:11:24;3.94;99.99
67249;SHT31;63247;54.300;18.592;2023-04-01T03:13:51;3.86;99.99
67249;SHT31;63247;54.300;18.592;2023-04-01T03:16:16;3.81;99.99
67249;SHT31;63247;54.300;18.592;2023-04-01T03:18:42;3.83;99.99
67249;SHT31;63247;54.300;18.592;2023-04-01T03:21:15;3.73;99.99
67249;SHT31;63247;54.300;18.592;2023-04-01T03:23:41;3.87;99.99
67249;SHT31;63247;54.300;18.592;2023-04-01T03:26:06;3.90;99.99
67249;SHT31;63247;54.300;18.592;2023-04-01T03:28:32;3.79;99.99
67249;SHT31;63247;54.300;18.592;2023-04-01T03:30:57;3.69;99.99
67249;SHT31;63247;54.300;18.592;2023-04-01T03:33:22;3.76;99.99
67249;SHT31;63247;54.300;18.592;2023-04-01T03:35:48;3.84;99.99
67249;SHT31;63247;54.300;18.592;2023-04-01T03:38:13;3.87;99.99
67249;SHT31;63247;54.300;18.592;2023-04-01T03:40:42;3.89;99.99
67249;SHT31;63247;54.300;18.592;2023-04-01T03:43:08;3.86;99.99
67249;SHT31;63247;54.300;18.592;2023-04-01T03:45:35;3.93;99.99
67249;SHT31;63247;54.300;18.592;2023-04-01T03:48:00;3.81;99.99
67249;SHT31;63247;54.300;18.592;2023-04-01T03:50:26;3.72;99.99
67249;SHT31;63247;54.300;18.592;2023-04-01T03:52:51;3.81;99.99
67249;SHT31;63247;54.300;18.592;2023-04-01T03:55:17;3.83;99.99
67249;SHT31;63247;54.300;18.592;2023-04-01T03:57:43;3.80;99.99
67249;SHT31;63247;54.300;18.592;2023-04-01T04:00:09;3.87;99.99
67249;SHT31;63247;54.300;18.592;2023-04-01T04:02:35;3.87;99.99
67249;SHT31;63247;54.300;18.592;2023-04-01T04:05:01;3.94;99.99
67249;SHT31;63247;54.300;18.592;2023-04-01T04:07:26;3.91;99.99
67249;SHT31;63247;54.300;18.592;2023-04-01T04:09:52;3.94;99.99
67249;SHT31;63247;54.300;18.592;2023-04-01T04:12:17;3.86;99.99
67249;SHT31;63247;54.300;18.592;2023-04-01T04:14:43;3.80;99.99
67249;SHT31;63247;54.300;18.592;2023-04-01T04:17:10;3.86;99.99
67249;SHT31;63247;54.300;18.592;2023-04-01T04:19:41;3.90;99.99
67249;SHT31;63247;54.300;18.592;2023-04-01T04:22:07;3.89;99.99
67249;SHT31;63247;54.300;18.592;2023-04-01T04:24:34;3.90;99.99
67249;SHT31;63247;54.300;18.592;2023-04-01T04:26:59;3.89;99.99
67249;SHT31;63247;54.300;18.592;2023-04-01T04:29:25;3.95;99.99
67249;SHT31;63247;54.300;18.592;2023-04-01T04:31:50;3.93;99.99
67249;SHT31;63247;54.300;18.592;2023-04-01T04:34:16;3.87;99.99
67249;SHT31;63247;54.300;18.592;2023-04-01T04:36:41;3.80;99.99
67249;SHT31;63247;54.300;18.592;2023-04-01T04:39:06;3.89;99.99
67249;SHT31;63247;54.300;18.592;2023-04-01T04:41:32;3.95;99.99
67249;SHT31;63247;54.300;18.592;2023-04-01T04:43:57;3.97;99.99
67249;SHT31;63247;54.300;18.592;2023-04-01T04:46:24;4.00;99.99
67249;SHT31;63247;54.300;18.592;2023-04-01T04:48:49;4.01;99.99
67249;SHT31;63247;54.300;18.592;2023-04-01T04:51:17;4.01;99.99
67249;SHT31;63247;54.300;18.592;2023-04-01T04:53:43;4.11;99.99
67249;SHT31;63247;54.300;18.592;2023-04-01T04:56:09;4.08;99.99
67249;SHT31;63247;54.300;18.592;2023-04-01T04:58:35;4.15;99.99
67249;SHT31;63247;54.300;18.592;2023-04-01T05:01:12;4.07;99.99
67249;SHT31;63247;54.300;18.592;2023-04-01T05:03:37;4.14;99.99
67249;SHT31;63247;54.300;18.592;2023-04-01T05:06:04;4.11;99.99
67249;SHT31;63247;54.300;18.592;2023-04-01T05:08:29;4.14;99.99
67249;SHT31;63247;54.300;18.592;2023-04-01T05:10:55;4.21;99.99
67249;SHT31;63247;54.300;18.592;2023-04-01T05:13:20;4.20;99.99
67249;SHT31;63247;54.300;18.592;2023-04-01T05:15:46;4.17;99.99
67249;SHT31;63247;54.300;18.592;2023-04-01T05:18:11;4.21;99.99
67249;SHT31;63247;54.300;18.592;2023-04-01T05:20:37;4.20;99.99
67249;SHT31;63247;54.300;18.592;2023-04-01T05:23:02;4.31;99.99
67249;SHT31;63247;54.300;18.592;2023-04-01T05:25:28;4.24;99.99
67249;SHT31;63247;54.300;18.592;2023-04-01T05:27:53;4.21;99.99
67249;SHT31;63247;54.300;18.592;2023-04-01T05:30:19;4.30;99.99
67249;SHT31;63247;54.300;18.592;2023-04-01T05:32:44;4.25;99.99
67249;SHT31;63247;54.300;18.592;2023-04-01T05:35:10;4.21;99.99
67249;SHT31;63247;54.300;18.592;2023-04-01T05:37:36;4.15;99.99
67249;SHT31;63247;54.300;18.592;2023-04-01T05:40:03;4.25;99.99
67249;SHT31;63247;54.300;18.592;2023-04-01T05:42:28;4.20;99.99
67249;SHT31;63247;54.300;18.592;2023-04-01T05:44:54;4.25;99.99
67249;SHT31;63247;54.300;18.592;2023-04-01T05:47:21;4.27;99.99
67249;SHT31;63247;54.300;18.592;2023-04-01T05:49:47;4.22;99.99
67249;SHT31;63247;54.300;18.592;2023-04-01T05:52:13;4.31;99.99
67249;SHT31;63247;54.300;18.592;2023-04-01T05:54:38;4.25;99.99
67249;SHT31;63247;54.300;18.592;2023-04-01T05:57:03;4.24;99.99
67249;SHT31;63247;54.300;18.592;2023-04-01T05:59:29;4.20;99.99
67249;SHT31;63247;54.300;18.592;2023-04-01T06:01:56;4.15;99.99
67249;SHT31;63247;54.300;18.592;2023-04-01T06:04:22;4.11;99.99
67249;SHT31;63247;54.300;18.592;2023-04-01T06:06:47;4.05;99.99
67249;SHT31;63247;54.300;18.592;2023-04-01T06:09:26;4.05;99.99
67249;SHT31;63247;54.300;18.592;2023-04-01T06:39:33;3.93;99.99
67249;SHT31;63247;54.300;18.592;2023-04-01T06:55:46;3.95;99.99
67249;SHT31;63247;54.300;18.592;2023-04-01T06:58:27;3.86;99.99
67249;SHT31;63247;54.300;18.592;2023-04-01T07:01:02;3.93;99.99
67249;SHT31;63247;54.300;18.592;2023-04-01T07:03:52;3.90;99.99
67249;SHT31;63247;54.300;18.592;2023-04-01T07:09:31;3.91;99.99
67249;SHT31;63247;54.300;18.592;2023-04-01T07:12:02;4.00;99.99
67249;SHT31;63247;54.300;18.592;2023-04-01T07:14:36;4.00;99.99
67249;SHT31;63247;54.300;18.592;2023-04-01T07:17:17;4.07;99.99
67249;SHT31;63247;54.300;18.592;2023-04-01T07:19:51;4.07;99.99
67249;SHT31;63247;54.300;18.592;2023-04-01T07:22:42;4.01;99.99
67249;SHT31;63247;54.300;18.592;2023-04-01T07:25:35;4.08;99.99
67249;SHT31;63247;54.300;18.592;2023-04-01T07:28:10;4.14;99.99
67249;SHT31;63247;54.300;18.592;2023-04-01T07:41:32;4.31;99.99
67249;SHT31;63247;54.300;18.592;2023-04-01T07:44:18;4.28;99.99
67249;SHT31;63247;54.300;18.592;2023-04-01T07:47:17;4.30;99.99
67249;SHT31;63247;54.300;18.592;2023-04-01T07:52:21;4.48;99.99
67249;SHT31;63247;54.300;18.592;2023-04-01T07:54:57;4.46;99.99
67249;SHT31;63247;54.300;18.592;2023-04-01T08:00:27;4.22;99.99
67249;SHT31;63247;54.300;18.592;2023-04-01T08:05:56;4.28;99.99
67249;SHT31;63247;54.300;18.592;2023-04-01T08:08:26;4.30;99.99
67249;SHT31;63247;54.300;18.592;2023-04-01T08:22:38;4.27;99.99
67249;SHT31;63247;54.300;18.592;2023-04-01T08:25:06;4.35;99.99
67249;SHT31;63247;54.300;18.592;2023-04-01T08:27:39;4.28;99.99
67249;SHT31;63247;54.300;18.592;2023-04-01T08:32:37;4.15;99.99
67249;SHT31;63247;54.300;18.592;2023-04-01T08:35:29;4.11;99.99
67249;SHT31;63247;54.300;18.592;2023-04-01T08:38:01;3.95;99.99
67249;SHT31;63247;54.300;18.592;2023-04-01T08:40:55;4.01;99.99
67249;SHT31;63247;54.300;18.592;2023-04-01T08:46:06;4.14;99.99
67249;SHT31;63247;54.300;18.592;2023-04-01T08:49:23;4.17;99.99
67249;SHT31;63247;54.300;18.592;2023-04-01T08:54:55;4.22;99.99
67249;SHT31;63247;54.300;18.592;2023-04-01T09:11:30;4.04;99.99
67249;SHT31;63247;54.300;18.592;2023-04-01T09:17:37;4.20;99.99
67249;SHT31;63247;54.300;18.592;2023-04-01T09:31:32;4.20;99.99
67249;SHT31;63247;54.300;18.592;2023-04-01T09:42:21;4.31;99.99
67249;SHT31;63247;54.300;18.592;2023-04-01T09:45:23;4.15;99.99
67249;SHT31;63247;54.300;18.592;2023-04-01T09:50:32;4.15;99.99
67249;SHT31;63247;54.300;18.592;2023-04-01T10:09:50;4.22;99.99
67249;SHT31;63247;54.300;18.592;2023-04-01T10:15:34;4.11;99.99
67249;SHT31;63247;54.300;18.592;2023-04-01T10:18:08;3.94;99.99
67249;SHT31;63247;54.300;18.592;2023-04-01T10:32:16;4.05;99.99
67249;SHT31;63247;54.300;18.592;2023-04-01T10:35:20;3.97;99.99
67249;SHT31;63247;54.300;18.592;2023-04-01T10:56:09;3.77;99.99
67249;SHT31;63247;54.300;18.592;2023-04-01T11:15:57;4.02;99.99
67249;SHT31;63247;54.300;18.592;2023-04-01T11:24:39;4.11;99.99
67249;SHT31;63247;54.300;18.592;2023-04-01T11:44:21;3.91;99.99
67249;SHT31;63247;54.300;18.592;2023-04-01T11:49:38;3.80;99.99
67249;SHT31;63247;54.300;18.592;2023-04-01T12:05:52;3.95;99.99
67249;SHT31;63247;54.300;18.592;2023-04-01T12:08:51;4.00;99.99
67249;SHT31;63247;54.300;18.592;2023-04-01T12:14:01;3.86;99.99
67249;SHT31;63247;54.300;18.592;2023-04-01T12:24:49;3.76;99.99
67249;SHT31;63247;54.300;18.592;2023-04-01T12:41:51;3.79;99.99
67249;SHT31;63247;54.300;18.592;2023-04-01T12:44:52;3.91;99.99
67249;SHT31;63247;54.300;18.592;2023-04-01T12:55:40;3.69;99.99
67249;SHT31;63247;54.300;18.592;2023-04-01T13:01:17;3.60;99.99
67249;SHT31;63247;54.300;18.592;2023-04-01T13:09:21;3.56;99.99
67249;SHT31;63247;54.300;18.592;2023-04-01T13:14:57;3.56;99.99
67249;SHT31;63247;54.300;18.592;2023-04-01T13:17:52;3.42;99.99
67249;SHT31;63247;54.300;18.592;2023-04-01T13:20:36;3.45;99.99
67249;SHT31;63247;54.300;18.592;2023-04-01T13:28:19;3.28;99.99
67249;SHT31;63247;54.300;18.592;2023-04-01T13:33:47;3.29;99.99
67249;SHT31;63247;54.300;18.592;2023-04-01T13:41:31;3.42;99.99
67249;SHT31;63247;54.300;18.592;2023-04-01T13:44:06;3.55;99.99
67249;SHT31;63247;54.300;18.592;2023-04-01T14:03:03;3.08;99.99
67249;SHT31;63247;54.300;18.592;2023-04-01T14:11:43;3.18;99.99
67249;SHT31;63247;54.300;18.592;2023-04-01T14:25:58;3.11;99.99
67249;SHT31;63247;54.300;18.592;2023-04-01T14:34:39;3.09;99.99
67249;SHT31;63247;54.300;18.592;2023-04-01T14:37:38;3.00;99.99
67249;SHT31;63247;54.300;18.592;2023-04-01T14:45:55;3.03;99.99
67249;SHT31;63247;54.300;18.592;2023-04-01T14:48:57;3.04;99.99
67249;SHT31;63247;54.300;18.592;2023-04-01T14:51:34;3.09;99.99
67249;SHT31;63247;54.300;18.592;2023-04-01T14:56:44;3.05;99.99
67249;SHT31;63247;54.300;18.592;2023-04-01T15:04:52;3.07;99.99
67249;SHT31;63247;54.300;18.592;2023-04-01T15:07:21;3.00;99.99
67249;SHT31;63247;54.300;18.592;2023-04-01T15:14:04;3.00;99.99
67249;SHT31;63247;54.300;18.592;2023-04-01T15:27:09;2.85;99.99
67249;SHT31;63247;54.300;18.592;2023-04-01T15:40:31;2.98;99.99
67249;SHT31;63247;54.300;18.592;2023-04-01T15:46:15;2.95;99.99
67249;SHT31;63247;54.300;18.592;2023-04-01T16:10:44;2.90;99.99
67249;SHT31;63247;54.300;18.592;2023-04-01T16:16:25;2.83;99.99
67249;SHT31;63247;54.300;18.592;2023-04-01T16:22:02;2.87;99.99
67249;SHT31;63247;54.300;18.592;2023-04-01T16:24:47;2.90;99.99
67249;SHT31;63247;54.300;18.592;2023-04-01T16:43:21;2.83;99.99
67249;SHT31;63247;54.300;18.592;2023-04-01T16:52:00;2.79;99.99
67249;SHT31;63247;54.300;18.592;2023-04-01T16:57:14;2.81;99.99
67249;SHT31;63247;54.300;18.592;2023-04-01T17:02:34;2.81;99.99
67249;SHT31;63247;54.300;18.592;2023-04-01T17:05:03;2.81;99.99
67249;SHT31;63247;54.300;18.592;2023-04-01T17:15:42;2.74;99.99
67249;SHT31;63247;54.300;18.592;2023-04-01T17:18:37;2.70;99.99
67249;SHT31;63247;54.300;18.592;2023-04-01T17:24:03;2.60;99.99
67249;SHT31;63247;54.300;18.592;2023-04-01T17:26:42;2.64;99.99
67249;SHT31;63247;54.300;18.592;2023-04-01T17:29:28;2.60;99.99
67249;SHT31;63247;54.300;18.592;2023-04-01T17:34:39;2.61;99.99
67249;SHT31;63247;54.300;18.592;2023-04-01T17:37:28;2.57;99.99
67249;SHT31;63247;54.300;18.592;2023-04-01T17:43:57;2.63;99.99
67249;SHT31;63247;54.300;18.592;2023-04-01T17:46:25;2.61;99.99
67249;SHT31;63247;54.300;18.592;2023-04-01T17:51:41;2.68;99.99
67249;SHT31;63247;54.300;18.592;2023-04-01T17:59:37;2.70;99.99
67249;SHT31;63247;54.300;18.592;2023-04-01T18:07:36;2.67;99.99
67249;SHT31;63247;54.300;18.592;2023-04-01T18:10:25;2.66;99.99
67249;SHT31;63247;54.300;18.592;2023-04-01T18:13:06;2.66;99.99
67249;SHT31;63247;54.300;18.592;2023-04-01T18:18:56;2.72;99.99
67249;SHT31;63247;54.300;18.592;2023-04-01T18:24:35;2.64;99.99
67249;SHT31;63247;54.300;18.592;2023-04-01T18:27:24;2.64;99.99
67249;SHT31;63247;54.300;18.592;2023-04-01T18:30:00;2.70;99.99
67249;SHT31;63247;54.300;18.592;2023-04-01T18:35:55;2.66;99.99
67249;SHT31;63247;54.300;18.592;2023-04-01T18:38:36;2.72;99.99
67249;SHT31;63247;54.300;18.592;2023-04-01T18:41:16;2.73;99.99
67249;SHT31;63247;54.300;18.592;2023-04-01T18:46:58;2.73;99.99
67249;SHT31;63247;54.300;18.592;2023-04-01T18:52:17;2.73;99.99
67249;SHT31;63247;54.300;18.592;2023-04-01T19:00:35;2.80;99.99
67249;SHT31;63247;54.300;18.592;2023-04-01T19:03:24;2.77;99.99
67249;SHT31;63247;54.300;18.592;2023-04-01T19:05:52;2.68;99.99
67249;SHT31;63247;54.300;18.592;2023-04-01T19:11:13;2.77;99.99
67249;SHT31;63247;54.300;18.592;2023-04-01T19:21:37;2.84;99.99
67249;SHT31;63247;54.300;18.592;2023-04-01T19:38:43;2.68;99.99
67249;SHT31;63247;54.300;18.592;2023-04-01T19:46:28;2.66;99.99
67249;SHT31;63247;54.300;18.592;2023-04-01T19:54:14;2.54;99.99
67249;SHT31;63247;54.300;18.592;2023-04-01T19:57:32;2.61;99.75
67249;SHT31;63247;54.300;18.592;2023-04-01T20:00:22;2.61;99.76
67249;SHT31;63247;54.300;18.592;2023-04-01T20:03:10;2.60;99.99
67249;SHT31;63247;54.300;18.592;2023-04-01T20:21:56;2.52;99.99
67249;SHT31;63247;54.300;18.592;2023-04-01T20:24:30;2.47;99.99
67249;SHT31;63247;54.300;18.592;2023-04-01T20:27:24;2.40;99.99
67249;SHT31;63247;54.300;18.592;2023-04-01T20:41:06;2.40;99.99
67249;SHT31;63247;54.300;18.592;2023-04-01T21:05:45;2.37;99.99
67249;SHT31;63247;54.300;18.592;2023-04-01T21:15:48;2.30;99.99
67249;SHT31;63247;54.300;18.592;2023-04-01T21:55:13;2.22;99.99
67249;SHT31;63247;54.300;18.592;2023-04-01T22:06:42;2.28;99.46
67249;SHT31;63247;54.300;18.592;2023-04-01T22:09:12;2.29;99.56
67249;SHT31;63247;54.300;18.592;2023-04-01T22:11:48;2.32;99.69
67249;SHT31;63247;54.300;18.592;2023-04-01T22:14:37;2.30;99.72
67249;SHT31;63247;54.300;18.592;2023-04-01T22:28:38;2.19;99.90
67249;SHT31;63247;54.300;18.592;2023-04-01T22:31:07;2.21;99.86
67249;SHT31;63247;54.300;18.592;2023-04-01T22:39:25;2.18;99.68
67249;SHT31;63247;54.300;18.592;2023-04-01T22:52:33;2.04;99.99
67249;SHT31;63247;54.300;18.592;2023-04-01T22:55:17;2.01;99.99
67249;SHT31;63247;54.300;18.592;2023-04-01T22:57:55;1.95;99.99
67249;SHT31;63247;54.300;18.592;2023-04-01T23:00:26;1.84;99.99
67249;SHT31;63247;54.300;18.592;2023-04-01T23:05:35;1.84;99.99
67249;SHT31;63247;54.300;18.592;2023-04-01T23:11:07;1.74;99.99
67249;SHT31;63247;54.300;18.592;2023-04-01T23:13:40;1.71;99.99
67249;SHT31;63247;54.300;18.592;2023-04-01T23:16:08;1.66;99.99
67249;SHT31;63247;54.300;18.592;2023-04-01T23:18:43;1.77;99.99
67249;SHT31;63247;54.300;18.592;2023-04-01T23:21:18;1.66;99.99
67249;SHT31;63247;54.300;18.592;2023-04-01T23:26:32;1.75;99.99
67249;SHT31;63247;54.300;18.592;2023-04-01T23:29:01;1.81;99.99
67249;SHT31;63247;54.300;18.592;2023-04-01T23:31:36;1.78;99.99
67249;SHT31;63247;54.300;18.592;2023-04-01T23:34:24;1.84;99.99
67249;SHT31;63247;54.300;18.592;2023-04-01T23:36:55;1.89;97.91
67249;SHT31;63247;54.300;18.592;2023-04-01T23:39:34;2.07;95.53
67249;SHT31;63247;54.300;18.592;2023-04-01T23:44:39;2.26;93.99
67249;SHT31;63247;54.300;18.592;2023-04-01T23:47:06;2.35;92.98
67249;SHT31;63247;54.300;18.592;2023-04-01T23:49:38;2.37;92.03
67249;SHT31;63247;54.300;18.592;2023-04-01T23:52:24;2.45;91.74
67249;SHT31;63247;54.300;18.592;2023-04-01T23:54:56;2.52;91.88
67249;SHT31;63247;54.300;18.592;2023-04-01T23:57:33;2.50;92.00
